Flight Track Log - Related Links

Times and Time Zones

All times are in EDT time to prevent confusion due to time zone crossing. See the UAL582 flight status page for this flight to view local times or setup timezone preferences in your user account.

Time Position Orientation Groundspeed Altitude Reporting Facility
EDT Latitude Longitude Course Direction KTS MPH feet Rate Location/Type
Sun 02:58:00 AM 33.9342 -118.4381 90° East 186 214 1,300  Level Los Center
Sun 02:59:01 AM 33.8933 -118.4953 229° Southwest 233 268 3,700 2,231 Climbing Los Center
Sun 03:00:00 AM 33.7489 -118.5986 134° Southeast  Level FlightAware
Sun 03:00:01 AM 33.8206 -118.5050 186° South 273 314 5,800  Level Los Center
Sun 03:01:00 AM 33.6758 -118.4716 101° East  Level FlightAware
Sun 03:01:02 AM 33.7408 -118.5158 186° South 291 335 8,500  Level Los Center
Sun 03:02:00 AM 33.6333 -118.3223 90° East  Level FlightAware
Sun 03:02:02 AM 33.6725 -118.4650 148° Southeast 329 379 10,400  Level Los Center
Sun 03:03:00 AM 33.6333 -118.1628 90° East  Level FlightAware
Sun 03:03:02 AM 33.6481 -118.3503 104° East 355 409 12,200  Level Los Center
Sun 03:04:03 AM 33.6422 -118.2294 93° East 386 444 14,600 2,182 Climbing Los Center
Sun 03:05:03 AM 33.6439 -118.1053 89° East 381 438 16,600 2,250 Climbing Los Center
Sun 03:06:03 AM 33.6428 -117.9458 90° East 398 458 19,100 2,132 Climbing Los Center
Sun 03:07:04 AM 33.6417 -117.8092 91° East 409 471 20,900 1,785 Climbing Los Center
Sun 03:08:04 AM 33.6411 -117.6686 90° East 422 486 22,700 1,736 Climbing Los Center
Sun 03:09:05 AM 33.6406 -117.5247 90° East 431 496 24,400 1,488 Climbing Los Center
Sun 03:10:05 AM 33.6403 -117.3786 90° East 439 505 25,700 1,300 Climbing Los Center
Sun 03:11:05 AM 33.6394 -117.2267 90° East 455 524 27,000 1,289 Climbing Los Center
Sun 03:12:06 AM 33.6378 -117.0711 91° East 466 536 28,300 1,240 Climbing Los Center
Sun 03:13:06 AM 33.6397 -116.9122 89° East 477 549 29,500 1,100 Climbing Los Center
Sun 03:14:06 AM 33.6656 -116.7742 77° East 477 549 30,500 1,240 Climbing Los Center
Sun 03:15:07 AM 33.6992 -116.6203 75° East 475 547 32,000 1,388 Climbing Los Center
Sun 03:16:07 AM 33.7325 -116.4672 75° East 474 545 33,300 1,150 Climbing Los Center
Sun 03:17:07 AM 33.7667 -116.3144 75° East 472 543 34,300 843 Climbing Los Center
Sun 03:18:08 AM 33.8022 -116.1603 74° East 476 548 35,000 347 Climbing Los Center
Sun 03:19:08 AM 33.8469 -116.0097 70° East 477 549 35,000  Level Los Center
Sun 03:20:09 AM 33.8942 -115.8561 70° East 486 559 35,000  Level Los Center
Sun 03:21:09 AM 33.9419 -115.7039 69° East 487 560 35,000  Level Los Center
Sun 03:22:09 AM 33.9881 -115.5500 70° East 487 560 35,000  Level Los Center
Sun 03:23:09 AM 34.0447 -115.3675 69° East 486 559 35,000  Level Los Center
Sun 03:24:10 AM 34.1103 -115.2242 61° Northeast 489 563 35,000 50 Level Los Center
Sun 03:25:10 AM 34.1753 -115.0833 61° Northeast 484 557 35,100 550 Climbing Los Center
Sun 03:26:10 AM 34.2333 -114.9361 64° Northeast 485 558 36,100 893 Climbing Los Center
Sun 03:27:11 AM 34.2792 -114.7819 70° East 489 563 36,900 446 Climbing Los Center
Sun 03:28:11 AM 34.3236 -114.6272 71° East 487 560 37,000 50 Climbing Los Center
Sun 03:29:11 AM 34.3683 -114.4706 71° East 492 566 37,000  Level Los Center
Sun 03:30:24 AM 34.4122 -114.3172 71° East 485 558 37,000 -45 Level Los Center
Sun 03:31:24 AM 34.4658 -114.1267 71° East 495 570 36,900  Descending Los Center
Sun 03:32:10 AM 34.5014 -113.9989 71° East 496 571 37,000 56 Climbing Albuquerque Center
Sun 03:33:11 AM 34.5467 -113.8397 71° East 500 575 37,000  Level Albuquerque Center
Sun 03:34:11 AM 34.5914 -113.6800 71° East 501 577 37,000  Level Albuquerque Center
Sun 03:35:11 AM 34.6292 -113.5436 71° East 502 578 37,000  Level Albuquerque Center
Sun 03:36:11 AM 34.6725 -113.3842 72° East 503 579 37,000  Level Albuquerque Center
Sun 03:37:12 AM 34.7150 -113.2231 72° East 504 580 37,000  Level Albuquerque Center
Sun 03:38:12 AM 34.7669 -113.0317 72° East 504 580 37,000  Level Albuquerque Center
Sun 03:39:12 AM 34.8094 -112.8744 72° East 497 572 37,000  Level Albuquerque Center
Sun 03:40:13 AM 34.8517 -112.7164 72° East 498 573 37,000  Level Albuquerque Center
Sun 03:41:13 AM 34.8936 -112.5592 72° East 497 572 37,000  Level Albuquerque Center
Sun 03:42:13 AM 34.9350 -112.4019 72° East 495 570 37,000  Level Albuquerque Center
Sun 03:43:13 AM 34.9767 -112.2433 72° East 495 570 37,000  Level Albuquerque Center
Sun 03:44:14 AM 35.0183 -112.0847 72° East 496 571 37,000  Level Albuquerque Center
Sun 03:45:14 AM 35.0606 -111.9231 72° East 501 577 37,000  Level Albuquerque Center
Sun 03:46:14 AM 35.1014 -111.7631 73° East 500 575 37,000  Level Albuquerque Center
Sun 03:47:15 AM 35.1453 -111.5908 73° East 499 574 37,000  Level Albuquerque Center
Sun 03:48:15 AM 35.1861 -111.4325 72° East 493 567 37,000  Level Albuquerque Center
Sun 03:49:15 AM 35.2261 -111.2717 73° East 493 567 37,000  Level Albuquerque Center
Sun 03:50:15 AM 35.2664 -111.1111 73° East 493 567 37,000  Level Albuquerque Center
Sun 03:51:16 AM 35.3058 -110.9578 72° East 495 570 37,000  Level Albuquerque Center
Sun 03:52:16 AM 35.3503 -110.7764 73° East 497 572 37,000  Level Albuquerque Center
Sun 03:53:16 AM 35.3878 -110.6203 74° East 499 574 37,000  Level Albuquerque Center
Sun 03:54:16 AM 35.4283 -110.4650 72° East 500 575 37,000  Level Albuquerque Center
Sun 03:55:17 AM 35.4653 -110.3094 74° East 499 574 37,000  Level Albuquerque Center
Sun 03:56:17 AM 35.5108 -110.1264 73° East 501 577 37,000  Level Albuquerque Center
Sun 03:57:17 AM 35.5489 -109.9675 74° East 505 581 37,000  Level Albuquerque Center
Sun 03:58:18 AM 35.5869 -109.8092 73° East 507 583 37,000  Level Albuquerque Center
Sun 03:59:18 AM 35.6308 -109.6219 74° East 511 588 37,000  Level Albuquerque Center
Sun 04:00:18 AM 35.6689 -109.4603 74° East 513 590 37,000  Level Albuquerque Center
Sun 04:01:18 AM 35.7061 -109.2978 74° East 515 593 37,000 -893 Level Albuquerque Center
Sun 04:02:19 AM 35.7500 -109.1094 74° East 515 593 35,200 -992 Descending Albuquerque Center
Sun 04:03:19 AM 35.7886 -108.9422 74° East 528 608 35,000 -100 Descending Albuquerque Center
Sun 04:04:19 AM 35.8261 -108.7797 74° East 525 604 35,000  Level Albuquerque Center
Sun 04:05:20 AM 35.8692 -108.5892 74° East 524 603 35,000  Level Albuquerque Center
Sun 04:06:20 AM 35.9056 -108.4264 75° East 521 600 35,000  Level Albuquerque Center
Sun 04:07:20 AM 35.9422 -108.2628 74° East 519 597 35,000  Level Albuquerque Center
Sun 04:08:20 AM 35.9847 -108.0697 75° East 523 602 35,000  Level Albuquerque Center
Sun 04:09:20 AM 36.0206 -107.9069 75° East 518 596 35,000  Level Albuquerque Center
Sun 04:10:21 AM 36.0539 -107.7392 76° East 523 602 35,000  Level Albuquerque Center
Sun 04:11:21 AM 36.0892 -107.5694 76° East 530 610 35,000  Level Albuquerque Center
Sun 04:12:21 AM 36.1317 -107.3675 75° East 540 621 35,000  Level Albuquerque Center
Sun 04:13:21 AM 36.1664 -107.1964 76° East 539 620 35,000  Level Albuquerque Center
Sun 04:14:22 AM 36.2133 -107.0317 71° East 533 613 35,000  Level Albuquerque Center
Sun 04:15:22 AM 36.2664 -106.8414 71° East 526 605 35,000  Level Albuquerque Center
Sun 04:16:22 AM 36.3139 -106.6786 70° East 524 603 35,000  Level Albuquerque Center
Sun 04:17:22 AM 36.3594 -106.5181 71° East 520 598 35,000  Level Albuquerque Center
Sun 04:18:22 AM 36.4056 -106.3558 71° East 520 598 35,000 -347 Level Albuquerque Center
Sun 04:19:23 AM 36.4583 -106.1642 71° East 524 603 34,300 -694 Descending Albuquerque Center
Sun 04:20:23 AM 36.5019 -106.0014 72° East 522 601 33,600 -650 Descending Albuquerque Center
Sun 04:21:23 AM 36.5253 -105.8444 79° East 519 597 33,000 -300 Descending Albuquerque Center
Sun 04:22:23 AM 36.5428 -105.6617 83° East 528 608 33,000  Level Albuquerque Center
Sun 04:23:24 AM 36.5678 -105.4608 81° East 525 604 33,000 50 Level Albuquerque Center
Sun 04:24:24 AM 36.5875 -105.2903 82° East 524 603 33,100  Climbing Albuquerque Center
Sun 04:25:24 AM 36.6094 -105.0992 82° East 518 596 33,000 -50 Descending Albuquerque Center
Sun 04:26:24 AM 36.6297 -104.9203 82° East 517 595 33,000  Level Albuquerque Center
Sun 04:27:24 AM 36.6511 -104.7439 81° East 512 589 33,000  Level Albuquerque Center
Sun 04:28:25 AM 36.6708 -104.5681 82° East 509 586 33,000  Level Albuquerque Center
Sun 04:29:25 AM 36.6889 -104.3994 82° East 505 581 33,000  Level Albuquerque Center
Sun 04:30:25 AM 36.7067 -104.2417 82° East 492 566 33,000  Level Albuquerque Center
Sun 04:31:25 AM 36.7239 -104.0872 82° East 480 552 33,000  Level Albuquerque Center
Sun 04:32:25 AM 36.7436 -103.9056 82° East 476 548 33,000  Level Albuquerque Center
Sun 04:33:26 AM 36.7600 -103.7506 82° East 475 547 33,000 50 Level Albuquerque Center
Sun 04:34:26 AM 36.7764 -103.5919 83° East 480 552 33,100 700 Climbing Albuquerque Center
Sun 04:35:26 AM 36.7933 -103.4306 82° East 488 562 34,400 1,400 Climbing Albuquerque Center
Sun 04:36:26 AM 36.8119 -103.2444 83° East 487 560 35,900 1,200 Climbing Albuquerque Center
Sun 04:37:26 AM 36.8333 -103.0883 80° East 483 556 36,800 545 Climbing Albuquerque Center
Sun 04:38:27 AM 36.8589 -102.9300 79° East 485 558 37,000 99 Climbing Albuquerque Center
Sun 04:39:27 AM 36.8883 -102.7428 79° East 491 565 37,000  Level Albuquerque Center
Sun 04:40:27 AM 36.9139 -102.5797 79° East 498 573 37,000  Level Albuquerque Center
Sun 04:41:27 AM 36.9394 -102.4075 79° East 498 573 37,000  Level Albuquerque Center
Sun 04:42:27 AM 36.9644 -102.2431 79° East 502 578 37,000  Level Albuquerque Center
Sun 04:43:27 AM 36.9889 -102.0806 79° East 499 574 37,000  Level Albuquerque Center
Sun 04:44:28 AM 37.0075 -101.8914 83° East 493 567 37,000  Level Albuquerque Center
Sun 04:45:28 AM 37.0153 -101.7297 87° East 490 564 37,000  Level Albuquerque Center
Sun 04:46:28 AM 37.0228 -101.5694 87° East 486 559 37,000  Level Albuquerque Center
Sun 04:48:25 AM 37.0414 -101.2200 86° East 488 562 37,000  Level Kansas Center
Sun 04:49:26 AM 37.0500 -101.0603 86° East 486 559 37,000  Level Kansas Center
Sun 04:50:26 AM 37.0578 -100.9003 86° East 484 557 37,000  Level Kansas Center
Sun 04:51:26 AM 37.0661 -100.7150 87° East 482 555 37,000  Level Kansas Center
Sun 04:52:26 AM 37.0739 -100.5558 86° East 482 555 37,000  Level Kansas Center
Sun 04:53:28 AM 37.0808 -100.3967 87° East 482 555 37,000  Level Kansas Center
Sun 04:54:27 AM 37.0881 -100.2367 87° East 482 555 37,000  Level Kansas Center
Sun 04:55:27 AM 37.0953 -100.0475 87° East 486 559 37,000  Level Kansas Center
Sun 04:56:30 AM 37.1025 -99.8831 87° East 493 567 37,000  Level Kansas Center
Sun 04:57:27 AM 37.1086 -99.7200 87° East 492 566 37,000  Level Kansas Center
Sun 04:58:29 AM 37.1161 -99.5267 87° East 497 572 37,000  Level Kansas Center
Sun 04:59:28 AM 37.1211 -99.3583 88° East 506 582 37,000  Level Kansas Center
Sun 05:00:28 AM 37.1269 -99.1808 88° East 508 585 37,000  Level Kansas Center
Sun 05:01:28 AM 37.1317 -99.0317 88° East 506 582 37,000  Level Kansas Center
Sun 05:02:30 AM 37.1381 -98.8225 88° East 503 579 37,000  Level Kansas Center
Sun 05:03:29 AM 37.1433 -98.6494 88° East 500 575 37,000  Level Kansas Center
Sun 05:04:29 AM 37.1494 -98.4772 87° East 499 574 37,000  Level Kansas Center
Sun 05:05:29 AM 37.1750 -98.3058 79° East 508 585 37,000  Level Kansas Center
Sun 05:06:30 AM 37.2017 -98.1344 79° East 503 579 37,000  Level Kansas Center
Sun 05:07:30 AM 37.2264 -97.9650 80° East 501 577 37,000  Level Kansas Center
Sun 05:08:30 AM 37.2506 -97.7986 80° East 495 570 37,000  Level Kansas Center
Sun 05:09:30 AM 37.2739 -97.6306 80° East 493 567 37,000  Level Kansas Center
Sun 05:10:33 AM 37.2972 -97.4614 80° East 495 570 37,000  Level Kansas Center
Sun 05:11:33 AM 37.3231 -97.2936 79° East 494 568 37,000  Level Kansas Center
Sun 05:12:32 AM 37.3467 -97.1275 80° East 490 564 37,000  Level Kansas Center
Sun 05:13:32 AM 37.3706 -96.9625 80° East 485 558 37,000  Level Kansas Center
Sun 05:14:32 AM 37.3933 -96.7983 80° East 481 554 37,000  Level Kansas Center
Sun 05:15:34 AM 37.4161 -96.6347 80° East 478 550 37,000  Level Kansas Center
Sun 05:16:33 AM 37.4392 -96.4706 80° East 478 550 37,000  Level Kansas Center
Sun 05:17:34 AM 37.4625 -96.2908 81° East 477 549 37,000  Level Kansas Center
Sun 05:18:34 AM 37.4847 -96.1261 80° East 477 549 37,000  Level Kansas Center
Sun 05:19:32 AM 37.5056 -95.9614 81° East 475 547 37,000  Level Kansas Center
Sun 05:20:32 AM 37.5261 -95.7961 81° East 476 548 37,000  Level Kansas Center
Sun 05:21:33 AM 37.5478 -95.6311 81° East 475 547 37,000  Level Kansas Center
Sun 05:22:35 AM 37.5686 -95.4656 81° East 476 548 37,000  Level Kansas Center
Sun 05:23:35 AM 37.5853 -95.3322 81° East 477 549 37,000  Level Kansas Center
Sun 05:24:33 AM 37.6058 -95.1647 81° East 480 552 37,000  Level Kansas Center
Sun 05:25:33 AM 37.6267 -94.9958 81° East 482 555 37,000  Level Kansas Center
Sun 05:26:34 AM 37.6472 -94.8258 81° East 487 560 37,000  Level Kansas Center
Sun 05:27:35 AM 37.6675 -94.6542 81° East 491 565 37,000  Level Kansas Center
Sun 05:28:34 AM 37.6886 -94.4731 82° East 493 567 37,000  Level Kansas Center
Sun 05:29:36 AM 37.7081 -94.3083 81° East 494 568 37,000  Level Kansas Center
Sun 05:30:36 AM 37.7275 -94.1367 82° East 494 568 37,000  Level Kansas Center
Sun 05:31:37 AM 37.7469 -93.9672 82° East 489 563 37,000  Level Kansas Center
Sun 05:32:34 AM 37.7664 -93.7981 82° East 486 559 37,000  Level Kansas Center
Sun 05:33:35 AM 37.7839 -93.6278 83° East 487 560 37,000  Level Kansas Center
Sun 05:34:36 AM 37.8014 -93.4603 82° East 482 555 37,000  Level Kansas Center
Sun 05:35:36 AM 37.8106 -93.2939 86° East 477 549 37,000  Level Kansas Center
Sun 05:36:37 AM 37.8214 -93.1283 85° East 474 545 37,000  Level Kansas Center
Sun 05:37:37 AM 37.8350 -92.9628 84° East 471 542 37,000  Level Kansas Center
Sun 05:38:38 AM 37.8458 -92.7992 85° East 467 537 37,000  Level Kansas Center
Sun 05:39:35 AM 37.8581 -92.6242 85° East 470 541 37,000  Level Kansas Center
Sun 05:40:36 AM 37.8692 -92.4569 85° East 476 548 37,000  Level Kansas Center
Sun 05:41:36 AM 37.8819 -92.2894 84° East 480 552 37,000  Level Kansas Center
Sun 05:42:36 AM 37.8881 -92.1175 87° East 487 560 37,000  Level Kansas Center
Sun 05:43:36 AM 37.9003 -91.9319 85° East 488 562 37,000  Level Kansas Center
Sun 05:44:36 AM 37.9103 -91.7594 86° East 489 563 37,000  Level Kansas Center
Sun 05:45:36 AM 37.9203 -91.5864 86° East 492 566 37,000  Level Kansas Center
Sun 05:46:36 AM 37.9314 -91.4144 85° East 490 564 37,000  Level Kansas Center
Sun 05:47:37 AM 37.9400 -91.2389 86° East 497 572 37,000  Level Kansas Center
Sun 05:48:37 AM 37.9494 -91.0644 86° East 496 571 37,000  Level Kansas Center
Sun 05:49:37 AM 37.9569 -90.9108 86° East 497 572 37,000  Level Kansas Center
Sun 05:50:37 AM 37.9642 -90.7353 87° East 501 577 37,000  Level Kansas Center
Sun 05:51:37 AM 37.9722 -90.5608 87° East 500 575 37,000  Level Kansas Center
Sun 05:52:38 AM 37.9822 -90.3617 86° East 502 578 37,000  Level Kansas Center
Sun 05:53:38 AM 37.9911 -90.1881 86° East 499 574 37,000  Level Kansas Center
Sun 05:54:38 AM 37.9994 -90.0136 86° East 498 573 37,000  Level Kansas Center
Sun 05:55:37 AM 38.0056 -89.8389 87° East 499 574 37,000  Level Kansas Center
Sun 05:56:38 AM 38.0106 -89.6633 88° East 500 575 37,000  Level Kansas Center
Sun 05:57:38 AM 38.0158 -89.4869 88° East 503 579 37,000  Level Kansas Center
Sun 05:58:38 AM 38.0211 -89.3083 88° East 507 583 37,000  Level Kansas Center
Sun 05:59:38 AM 38.0328 -89.1306 85° East 507 583 37,000  Level Kansas Center
Sun 06:00:38 AM 38.0483 -88.9783 83° East 512 589 37,000  Level Kansas Center
Sun 06:01:41 AM 38.0711 -88.7950 81° East 523 602 37,000  Level Kansas Center
Sun 06:02:40 AM 38.0975 -88.5989 80° East 531 611 37,000  Level Kansas Center
Sun 06:03:41 AM 38.1208 -88.4133 81° East 532 612 37,000  Level Kansas Center
Sun 06:04:38 AM 38.1431 -88.2275 81° East 530 610 37,000  Level Kansas Center
Sun 06:05:41 AM 38.1669 -88.0414 81° East 532 612 37,000 -492 Level Kansas Center
Sun 06:06:40 AM 38.1903 -87.8533 81° East 535 616 36,000 -1,525 Descending Kansas Center
Sun 06:07:39 AM 38.2136 -87.6633 81° East 540 621 34,000 -1,452 Descending Kansas Center
Sun 06:08:44 AM 38.2417 -87.4406 81° East 535 616 33,000 -480 Descending Indianapolis Center
Sun 06:09:44 AM 38.2628 -87.2536 82° East 535 616 33,000 -347 Level Indianapolis Center
Sun 06:10:45 AM 38.2819 -87.0822 82° East 536 617 32,300 -843 Descending Indianapolis Center
Sun 06:11:45 AM 38.3039 -86.8867 82° East 544 626 31,300 -650 Descending Indianapolis Center
Sun 06:12:45 AM 38.3242 -86.6933 82° East 551 634 31,000 -149 Descending Indianapolis Center
Sun 06:13:46 AM 38.3453 -86.5039 82° East 541 623 31,000  Level Indianapolis Center
Sun 06:14:46 AM 38.3658 -86.3103 82° East 550 633 31,000  Level Indianapolis Center
Sun 06:15:46 AM 38.3875 -86.1156 82° East 552 635 31,000  Level Indianapolis Center
Sun 06:16:46 AM 38.4053 -85.9200 83° East 555 639 31,000  Level Indianapolis Center
Sun 06:17:47 AM 38.4267 -85.7272 82° East 553 636 31,000  Level Indianapolis Center
Sun 06:18:47 AM 38.4444 -85.5331 83° East 550 633 31,000  Level Indianapolis Center
Sun 06:19:47 AM 38.4639 -85.3414 83° East 545 627 31,000  Level Indianapolis Center
Sun 06:20:48 AM 38.4819 -85.1508 83° East 547 629 31,000  Level Indianapolis Center
Sun 06:21:48 AM 38.4989 -84.9572 84° East 547 629 31,000  Level Indianapolis Center
Sun 06:22:48 AM 38.5169 -84.7614 83° East 551 634 31,000  Level Indianapolis Center
Sun 06:23:49 AM 38.5331 -84.5628 84° East 558 642 31,000  Level Indianapolis Center
Sun 06:24:49 AM 38.5508 -84.3667 83° East 557 641 31,000  Level Indianapolis Center
Sun 06:25:49 AM 38.5678 -84.1692 84° East 558 642 31,000  Level Indianapolis Center
Sun 06:26:49 AM 38.5842 -83.9686 84° East 563 648 31,000  Level Indianapolis Center
Sun 06:27:50 AM 38.5994 -83.7708 84° East 560 644 31,000  Level Indianapolis Center
Sun 06:28:50 AM 38.6142 -83.5711 85° East 560 644 31,000  Level Indianapolis Center
Sun 06:29:50 AM 38.6297 -83.3714 84° East 562 647 31,000  Level Indianapolis Center
Sun 06:30:51 AM 38.6458 -83.1636 84° East 567 652 31,000  Level Indianapolis Center
Sun 06:31:51 AM 38.6422 -82.9675 91° East 569 655 31,000  Level Indianapolis Center
Sun 06:32:51 AM 38.6014 -82.7778 105° East 556 640 31,000  Level Indianapolis Center
Sun 06:33:52 AM 38.5550 -82.5872 107° East 558 642 31,000  Level Indianapolis Center
Sun 06:34:52 AM 38.5083 -82.3969 107° East 556 640 31,000  Level Indianapolis Center
Sun 06:35:52 AM 38.4600 -82.2089 108° East 559 643 31,000  Level Indianapolis Center
Sun 06:36:53 AM 38.4125 -82.0214 108° East 558 642 31,000  Level Indianapolis Center
Sun 06:37:53 AM 38.3658 -81.8353 108° East 558 642 31,000  Level Indianapolis Center
Sun 06:38:54 AM 38.3447 -81.6417 98° East 564 649 31,000  Level Indianapolis Center
Sun 06:39:54 AM 38.3394 -81.4467 92° East 562 647 31,000  Level Indianapolis Center
Sun 06:40:54 AM 38.3325 -81.2497 93° East 563 648 31,000  Level Indianapolis Center
Sun 06:41:36 AM 38.3269 -81.0867 92° East 553 636 31,000  Level Washington Center
Sun 06:42:36 AM 38.3183 -80.9033 93° East 562 647 31,000  Level Washington Center
Sun 06:43:36 AM 38.3103 -80.7097 93° East 562 647 31,000  Level Washington Center
Sun 06:44:36 AM 38.3039 -80.5106 92° East 557 641 31,000  Level Washington Center
Sun 06:45:36 AM 38.3225 -80.3108 83° East 557 641 31,000  Level Washington Center
Sun 06:46:36 AM 38.3628 -80.1306 74° East 545 627 31,000 -850 Level Washington Center
Sun 06:47:36 AM 38.4047 -79.9503 73° East 511 588 29,300 -1,500 Descending Washington Center
Sun 06:48:36 AM 38.4400 -79.7853 75° East 484 557 28,000 -1,300 Descending Washington Center
Sun 06:49:36 AM 38.4722 -79.6358 75° East 455 524 26,700 -1,350 Descending Washington Center
Sun 06:50:36 AM 38.5039 -79.4944 74° East 434 499 25,300 -1,450 Descending Washington Center
Sun 06:51:36 AM 38.5311 -79.3578 76° East 411 473 23,800 -1,500 Descending Washington Center
Sun 06:52:36 AM 38.5581 -79.2344 74° East 398 458 22,300 -2,050 Descending Washington Center
Sun 06:53:36 AM 38.5783 -79.1078 78° East 398 458 19,700 -2,400 Descending Washington Center
Sun 06:54:36 AM 38.6144 -78.9394 75° East 398 458 17,500 -1,950 Descending Washington Center
Sun 06:55:36 AM 38.6411 -78.8025 76° East 398 458 15,800 -1,700 Descending Washington Center
Sun 06:56:36 AM 38.6697 -78.6708 74° East 392 451 14,100 -1,700 Descending Washington Center
Sun 06:57:36 AM 38.6958 -78.5442 75° East 380 437 12,400 -1,450 Descending Washington Center
Sun 06:58:36 AM 38.7217 -78.4203 75° East 368 423 11,200 -1,200 Descending Washington Center
Sun 06:59:36 AM 38.7244 -78.3006 88° East 347 399 10,000 -1,250 Descending Washington Center
Sun 07:00:36 AM 38.7125 -78.1831 97° East 335 386 8,700 -1,350 Descending Washington Center
Sun 07:01:36 AM 38.7025 -78.0656 96° East 330 380 7,300 -1,150 Descending Washington Center
Sun 07:02:36 AM 38.6942 -77.9564 96° East 330 380 6,400 -950 Descending Washington Center
Sun 07:03:36 AM 38.7022 -77.8633 84° East 307 353 5,400 -1,000 Descending Washington Center
Sun 07:04:36 AM 38.7125 -77.7653 82° East 290 334 4,400 -700 Descending Washington Center
Sun 07:05:36 AM 38.7267 -77.6700 79° East 278 320 4,000 -383 Descending Washington Center
Sun 07:06:10 AM 38.7333 -77.6167 81° East 271 312 3,800 -614 Descending Potomac TRACON
Sun 07:07:04 AM 38.7833 -77.5500 46° Northeast 250 288 3,100 -778 Descending Potomac TRACON

Login

Don't have an account? Register now (free) for customized features, flight alerts, and more!